Time;durP1;ratioP1;P1;durP2;ratioP2;P2;SDS_P1;SDS_P2;PMS_P1;PMS_P2;Temp;Humidity;BMP_temperature;BMP_pressure;BME280_temperature;BME280_humidity;BME280_pressure;Samples;Min_cycle;Max_cycle;Signal;HPM_P1;HPM_P2
2022/06/21 00:00:18;;;;;;;12.70;3.90;;;;;;;23.89;39.18;98541.14;25082;1316;3027607;-64
2022/06/21 00:02:47;;;;;;;15.70;3.90;;;;;;;23.86;39.30;98537.56;25075;1316;3071719;-66
2022/06/21 00:05:29;;;;;;;14.60;4.60;;;;;;;23.81;39.48;98536.41;25077;1318;3026374;-66
2022/06/21 00:07:58;;;;;;;18.90;5.80;;;;;;;23.84;39.40;98536.50;25070;1319;3055310;-61
2022/06/21 00:10:27;;;;;;;20.30;7.20;;;;;;;23.81;39.25;98531.13;25128;1315;3026300;-69
2022/06/21 00:12:56;;;;;;;24.40;9.40;;;;;;;23.78;39.05;98528.77;25060;1318;3051379;-62
2022/06/21 00:15:26;;;;;;;31.10;8.70;;;;;;;23.84;39.03;98521.92;25066;1316;3026517;-69
2022/06/21 00:17:55;;;;;;;36.90;8.30;;;;;;;23.86;38.97;98516.08;25090;1315;3026770;-62
2022/06/21 00:20:25;;;;;;;36.40;9.00;;;;;;;23.83;38.93;98519.41;25063;1318;3050942;-66
2022/06/21 00:22:54;;;;;;;41.10;9.00;;;;;;;23.77;39.17;98509.79;25089;1315;3027397;-66
2022/06/21 00:25:25;;;;;;;29.90;7.10;;;;;;;23.80;39.13;98512.63;25064;1315;3026527;-74
2022/06/21 00:27:55;;;;;;;29.10;6.10;;;;;;;23.82;38.81;98512.72;25003;1315;3026096;-66
2022/06/21 00:30:24;;;;;;;28.80;5.60;;;;;;;23.84;38.91;98513.22;24991;1316;3027349;-66
2022/06/21 00:32:54;;;;;;;21.80;4.40;;;;;;;23.82;39.14;98512.02;25062;1315;3026480;-62
2022/06/21 00:35:25;;;;;;;9.00;4.00;;;;;;;23.73;40.06;98510.67;25087;1315;3026678;-60
2022/06/21 00:37:54;;;;;;;12.30;4.20;;;;;;;23.61;40.73;98507.25;25030;1315;3026415;-70
2022/06/21 00:40:27;;;;;;;9.20;4.20;;;;;;;23.47;41.22;98501.76;25017;1318;3026639;-69
2022/06/21 00:43:03;;;;;;;14.00;5.10;;;;;;;23.39;41.62;98497.27;25041;1315;3053127;-68
2022/06/21 00:45:37;;;;;;;14.80;5.40;;;;;;;23.33;41.34;98498.33;25067;1315;3070283;-71
2022/06/21 00:48:14;;;;;;;17.80;5.30;;;;;;;23.30;41.23;98497.52;25104;1315;3048801;-61
2022/06/21 00:50:48;;;;;;;13.30;4.70;;;;;;;23.27;41.10;98498.00;25057;1316;3051879;-70
2022/06/21 00:53:28;;;;;;;9.60;5.30;;;;;;;23.18;41.54;98499.36;25025;1316;3054215;-69
2022/06/21 00:56:00;;;;;;;12.30;4.70;;;;;;;23.16;41.47;98499.44;25071;1315;3058831;-61
2022/06/21 00:58:30;;;;;;;14.30;5.40;;;;;;;23.21;41.40;98496.20;25097;1315;3026526;-63
2022/06/21 01:01:03;;;;;;;13.30;4.50;;;;;;;23.14;41.55;98494.38;25046;1315;3026307;-68
2022/06/21 01:03:40;;;;;;;10.20;4.70;;;;;;;23.05;42.39;98493.95;25067;1319;3027286;-64
2022/06/21 01:06:17;;;;;;;10.10;4.30;;;;;;;22.96;42.53;98491.12;25089;1319;3068584;-69
2022/06/21 01:08:51;;;;;;;10.40;3.80;;;;;;;22.91;42.87;98490.82;25049;1316;3052047;-64
2022/06/21 01:11:27;;;;;;;12.60;4.10;;;;;;;22.84;42.91;98490.84;25081;1318;3055136;-63
2022/06/21 01:13:57;;;;;;;10.60;4.30;;;;;;;22.79;42.97;98487.89;25106;1315;3052224;-62
2022/06/21 01:16:26;;;;;;;12.00;5.10;;;;;;;22.75;43.00;98487.61;25035;1315;3028896;-66
2022/06/21 01:18:55;;;;;;;21.70;6.20;;;;;;;22.76;43.02;98484.71;25066;1316;3027757;-60
2022/06/21 01:21:24;;;;;;;17.10;6.20;;;;;;;22.75;42.94;98488.61;25042;1315;3029448;-72
2022/06/21 01:24:08;;;;;;;23.60;6.80;;;;;;;22.67;43.26;98489.79;24988;1319;3058581;-61
2022/06/21 01:26:41;;;;;;;18.00;7.10;;;;;;;22.61;43.52;98490.57;25004;1316;3053846;-68
2022/06/21 01:29:15;;;;;;;20.50;6.90;;;;;;;22.60;43.24;98486.73;24991;1316;3027395;-69
2022/06/21 01:31:45;;;;;;;23.50;7.40;;;;;;;22.58;43.37;98490.92;25088;1316;3051582;-71
2022/06/21 01:34:17;;;;;;;23.90;8.20;;;;;;;22.54;43.30;98490.10;25029;1319;3026797;-62
2022/06/21 01:36:48;;;;;;;48.40;15.20;;;;;;;22.55;43.25;98486.85;25073;1317;3054955;-66
2022/06/21 01:39:20;;;;;;;49.30;19.00;;;;;;;22.44;43.62;98487.27;25101;1315;3026599;-67
2022/06/21 01:42:11;;;;;;;60.90;19.10;;;;;;;22.42;43.67;98486.50;25032;1316;3027691;-66
2022/06/21 01:44:46;;;;;;;59.60;17.20;;;;;;;22.47;43.41;98484.58;25102;1316;3049180;-68
2022/06/21 01:47:19;;;;;;;58.20;16.90;;;;;;;22.50;43.32;98480.73;25107;1316;3054756;-74
2022/06/21 01:49:52;;;;;;;40.10;13.50;;;;;;;22.57;42.83;98481.23;25114;1315;3026211;-63
2022/06/21 01:52:23;;;;;;;34.60;11.50;;;;;;;22.63;42.75;98474.06;25033;1316;3027028;-70
2022/06/21 01:55:21;;;;;;;37.20;11.20;;;;;;;22.63;42.52;98471.80;25094;1316;3027552;-63
2022/06/21 01:57:51;;;;;;;28.60;9.90;;;;;;;22.71;42.36;98470.05;25105;1316;3055722;-66
2022/06/21 02:00:20;;;;;;;36.10;10.10;;;;;;;22.74;42.21;98468.75;25151;1315;3026669;-63
2022/06/21 02:02:53;;;;;;;38.80;11.40;;;;;;;22.78;42.36;98470.55;25022;1315;3026667;-64
2022/06/21 02:05:40;;;;;;;40.70;11.30;;;;;;;22.78;42.08;98470.19;25028;1316;3049403;-68
2022/06/21 02:08:12;;;;;;;36.30;9.00;;;;;;;22.79;42.22;98473.64;25030;1315;3054780;-72
2022/06/21 02:10:44;;;;;;;29.90;10.40;;;;;;;22.85;42.05;98466.14;25080;1315;3026492;-62
2022/06/21 02:13:21;;;;;;;40.50;11.90;;;;;;;22.83;42.11;98467.90;25135;1316;3026900;-70
2022/06/21 02:16:04;;;;;;;38.20;10.50;;;;;;;22.86;41.87;98468.75;25044;1316;3050264;-63
2022/06/21 02:18:36;;;;;;;27.80;9.90;;;;;;;22.93;41.43;98467.64;25074;1316;3055827;-60
2022/06/21 02:21:15;;;;;;;38.80;11.90;;;;;;;23.05;41.14;98469.83;25042;1316;3026735;-69
2022/06/21 02:23:47;;;;;;;34.80;11.30;;;;;;;23.11;40.95;98464.55;25007;1319;3070976;-66
2022/06/21 02:26:16;;;;;;;33.70;11.20;;;;;;;23.12;41.16;98461.75;25063;1315;3027058;-65
2022/06/21 02:28:46;;;;;;;48.40;12.30;;;;;;;23.11;41.22;98456.80;25073;1315;3026844;-67
2022/06/21 02:31:15;;;;;;;31.90;10.60;;;;;;;23.12;41.19;98457.23;25106;1315;3068911;-67
2022/06/21 02:33:44;;;;;;;31.70;9.90;;;;;;;23.15;40.90;98447.94;25035;1315;3026995;-66
2022/06/21 02:36:17;;;;;;;32.80;9.80;;;;;;;23.20;40.70;98451.61;25054;1315;3049465;-69
2022/06/21 02:38:51;;;;;;;24.90;8.70;;;;;;;23.20;40.59;98449.66;25044;1316;3026843;-69
2022/06/21 02:41:33;;;;;;;;;;;;;;;23.24;40.80;98450.59;25063;1315;3052061;-71
2022/06/21 02:44:23;;;;;;;21.70;8.00;;;;;;;23.25;40.47;98445.23;25006;1318;3055474;-67
2022/06/21 02:46:55;;;;;;;27.80;8.10;;;;;;;23.28;40.36;98447.77;25062;1315;3055061;-69
2022/06/21 02:49:31;;;;;;;18.00;8.10;;;;;;;23.28;40.60;98445.70;25100;1316;3027177;-64
2022/06/21 02:52:02;;;;;;;23.30;8.10;;;;;;;23.32;40.64;98442.25;25008;1316;3049535;-64
2022/06/21 02:54:39;;;;;;;18.60;8.50;;;;;;;23.31;40.82;98443.48;25046;1315;3029524;-68
2022/06/21 02:57:25;;;;;;;19.80;9.20;;;;;;;23.30;40.99;98448.18;25047;1315;3055094;-68
2022/06/21 02:59:56;;;;;;;22.30;8.80;;;;;;;23.23;41.45;98451.52;25087;1316;3071578;-66
2022/06/21 03:02:26;;;;;;;21.60;9.10;;;;;;;23.28;41.39;98450.94;25060;1316;3027053;-63
2022/06/21 03:04:58;;;;;;;22.90;9.10;;;;;;;23.24;41.55;98449.64;25080;1315;3026786;-62
2022/06/21 03:07:54;;;;;;;27.70;9.20;;;;;;;23.24;41.41;98443.59;25104;1316;3027204;-63
2022/06/21 03:10:29;;;;;;;30.80;9.30;;;;;;;23.28;41.58;98441.82;25016;1315;3057595;-62
2022/06/21 03:13:00;;;;;;;27.60;9.60;;;;;;;23.28;41.46;98443.10;25035;1315;3052173;-66
2022/06/21 03:15:32;;;;;;;37.40;10.50;;;;;;;23.28;41.23;98439.97;25039;1315;3027080;-68
2022/06/21 03:18:05;;;;;;;25.40;10.80;;;;;;;23.33;41.01;98439.83;24964;1316;3026781;-63
2022/06/21 03:20:34;;;;;;;37.00;10.70;;;;;;;23.36;40.86;98434.05;25075;1315;3029435;-65
2022/06/21 03:23:04;;;;;;;35.90;10.30;;;;;;;23.41;40.94;98435.71;25011;1315;3026436;-64
2022/06/21 03:25:53;;;;;;;25.50;9.60;;;;;;;23.44;40.88;98433.67;25019;1315;3027284;-73
2022/06/21 03:28:26;;;;;;;23.40;8.40;;;;;;;23.49;40.41;98435.86;25148;1315;3053717;-64
2022/06/21 03:31:31;;;;;;;21.80;8.20;;;;;;;23.52;40.55;98430.89;25113;1316;3026121;-69
2022/06/21 03:34:10;;;;;;;26.50;7.30;;;;;;;23.55;40.39;98430.11;24915;1321;3049563;-66
2022/06/21 03:36:39;;;;;;;22.30;8.10;;;;;;;23.62;40.23;98427.86;24991;1318;3053467;-63
2022/06/21 03:39:18;;;;;;;23.20;7.50;;;;;;;23.70;39.67;98423.52;25086;1315;3028477;-65
2022/06/21 03:41:48;;;;;;;19.20;6.60;;;;;;;23.74;39.98;98428.48;25071;1315;3068349;-70
2022/06/21 03:44:20;;;;;;;17.40;7.40;;;;;;;23.80;39.70;98426.79;25079;1315;3026569;-68
2022/06/21 03:47:13;;;;;;;27.30;6.90;;;;;;;23.84;39.63;98425.73;25123;1316;3026664;-68
2022/06/21 03:49:54;;;;;;;20.00;7.10;;;;;;;23.89;39.18;98424.55;25037;1315;3053199;-65
2022/06/21 03:52:44;;;;;;;22.00;7.10;;;;;;;23.94;39.04;98422.46;25028;1316;3059229;-63
2022/06/21 03:55:22;;;;;;;17.90;6.50;;;;;;;24.00;38.88;98421.67;25063;1315;3052075;-60
2022/06/21 03:57:56;;;;;;;21.30;7.40;;;;;;;24.06;38.95;98416.65;25074;1315;3054087;-73
2022/06/21 04:00:25;;;;;;;;;;;;;;;24.14;39.10;98412.31;25078;1316;3053767;-65
2022/06/21 04:03:09;;;;;;;21.90;6.80;;;;;;;24.17;38.79;98414.04;25050;1316;3026404;-70
2022/06/21 04:05:48;;;;;;;30.30;8.40;;;;;;;24.28;38.84;98407.23;25076;1315;3053261;-65
2022/06/21 04:08:37;;;;;;;30.10;9.00;;;;;;;24.33;38.87;98408.92;25035;1315;3053815;-64
2022/06/21 04:11:55;;;;;;;28.10;9.70;;;;;;;24.41;38.60;98407.95;25038;1315;3070929;-70
2022/06/21 04:14:32;;;;;;;27.70;9.60;;;;;;;24.51;38.41;98412.02;25106;1315;3051141;-63
2022/06/21 04:17:06;;;;;;;30.80;11.60;;;;;;;24.60;38.56;98409.30;25052;1315;3055354;-68
2022/06/21 04:19:45;;;;;;;31.50;12.60;;;;;;;24.68;38.49;98406.12;25041;1315;3052739;-72
2022/06/21 04:22:14;;;;;;;54.00;17.60;;;;;;;24.72;38.48;98410.24;25099;1315;3059329;-69
2022/06/21 04:24:47;;;;;;;46.00;19.70;;;;;;;24.78;38.61;98407.46;25038;1315;3026769;-69
2022/06/21 04:27:24;;;;;;;57.70;22.70;;;;;;;24.82;38.48;98409.25;25077;1316;3052611;-69
2022/06/21 04:30:06;;;;;;;53.40;21.90;;;;;;;24.88;38.45;98403.46;25025;1316;3057196;-67
2022/06/21 04:32:44;;;;;;;54.00;21.10;;;;;;;24.96;38.26;98402.64;25047;1315;3052228;-70
2022/06/21 04:35:22;;;;;;;67.30;22.80;;;;;;;25.00;38.37;98400.35;25099;1315;3054351;-70
2022/06/21 04:38:04;;;;;;;65.50;21.00;;;;;;;25.03;38.44;98401.30;25019;1315;3054293;-60
2022/06/21 04:40:39;;;;;;;69.50;21.20;;;;;;;25.06;38.71;98404.84;25007;1315;3071845;-68
2022/06/21 04:43:10;;;;;;;61.10;16.80;;;;;;;25.13;38.91;98406.21;25019;1315;3052087;-68
2022/06/21 04:46:11;;;;;;;43.80;14.80;;;;;;;25.19;39.01;98408.42;25059;1315;3027008;-66
2022/06/21 04:48:52;;;;;;;31.60;11.40;;;;;;;25.23;39.24;98406.95;24982;1316;3055449;-68
2022/06/21 04:51:58;;;;;;;41.60;11.30;;;;;;;25.31;39.36;98404.81;25076;1315;3056632;-66
2022/06/21 04:54:31;;;;;;;47.20;10.00;;;;;;;25.34;39.45;98405.31;24978;1315;3052490;-68
2022/06/21 04:57:06;;;;;;;40.70;9.90;;;;;;;25.39;39.61;98401.11;25071;1316;3026982;-73
2022/06/21 04:59:40;;;;;;;33.20;8.20;;;;;;;25.42;39.94;98400.94;25076;1315;3050531;-70
2022/06/21 05:02:20;;;;;;;29.70;7.50;;;;;;;25.48;40.33;98400.20;25046;1315;3027505;-66
2022/06/21 05:04:52;;;;;;;29.20;8.00;;;;;;;25.52;40.44;98398.73;25115;1316;3048717;-68
2022/06/21 05:07:24;;;;;;;25.90;6.90;;;;;;;25.55;40.75;98399.04;25020;1315;3026440;-64
2022/06/21 05:09:54;;;;;;;23.50;6.80;;;;;;;25.55;41.10;98405.03;25039;1315;3027147;-65
2022/06/21 05:12:26;;;;;;;20.20;5.90;;;;;;;25.46;41.12;98405.25;25055;1315;3027139;-67
2022/06/21 05:15:02;;;;;;;22.30;5.90;;;;;;;25.46;41.37;98401.36;25018;1315;3026487;-71
2022/06/21 05:17:33;;;;;;;25.40;6.10;;;;;;;25.55;41.42;98393.42;25063;1316;3053696;-74
2022/06/21 05:20:05;;;;;;;20.10;5.20;;;;;;;25.60;41.68;98389.50;25092;1316;3026609;-64
2022/06/21 05:22:43;;;;;;;21.00;5.20;;;;;;;25.68;41.92;98390.23;25065;1315;3027334;-72
2022/06/21 05:25:30;;;;;;;19.20;5.40;;;;;;;25.77;42.05;98391.23;25091;1315;3050571;-67
2022/06/21 05:28:30;;;;;;;22.40;5.80;;;;;;;25.83;41.77;98388.46;25090;1315;3052942;-69
2022/06/21 05:31:03;;;;;;;13.80;5.40;;;;;;;25.88;41.63;98388.96;25012;1316;3055836;-72
2022/06/21 05:33:54;;;;;;;12.00;5.20;;;;;;;25.88;42.02;98389.59;25033;1315;3027532;-67
2022/06/21 05:36:51;;;;;;;13.50;5.10;;;;;;;25.92;40.92;98383.30;25088;1315;3049861;-69
2022/06/21 05:39:23;;;;;;;10.90;5.10;;;;;;;25.98;40.96;98377.72;25076;1315;3055943;-72
2022/06/21 05:41:54;;;;;;;16.80;5.80;;;;;;;26.04;40.86;98375.08;25047;1316;3029988;-64
2022/06/21 05:44:41;;;;;;;11.60;5.10;;;;;;;26.12;41.18;98375.92;25021;1315;3026973;-68
2022/06/21 05:47:16;;;;;;;11.40;4.70;;;;;;;26.13;40.47;98373.76;25076;1315;3049410;-73
2022/06/21 05:49:45;;;;;;;14.20;4.60;;;;;;;26.14;40.28;98367.95;25070;1316;3053107;-65
2022/06/21 05:52:21;;;;;;;14.20;4.50;;;;;;;26.25;40.41;98359.70;25099;1315;3026782;-68
2022/06/21 05:55:06;;;;;;;16.60;6.10;;;;;;;26.35;40.93;98359.36;25044;1315;3051427;-75
2022/06/21 05:57:53;;;;;;;18.20;4.90;;;;;;;26.40;40.71;98356.16;25039;1315;3055108;-69
2022/06/21 06:00:49;;;;;;;15.70;4.50;;;;;;;26.48;40.80;98356.81;25086;1315;3055077;-71
2022/06/21 06:03:29;;;;;;;10.60;3.90;;;;;;;26.50;40.55;98356.95;25042;1315;3059443;-72
2022/06/21 06:06:04;;;;;;;8.30;3.70;;;;;;;26.57;39.21;98356.23;25046;1315;3052290;-61
2022/06/21 06:08:37;;;;;;;7.20;2.90;;;;;;;26.56;38.88;98353.41;25036;1315;3057805;-68
2022/06/21 06:11:16;;;;;;;8.10;2.80;;;;;;;26.55;37.75;98347.04;25121;1315;3026456;-67
2022/06/21 06:13:46;;;;;;;11.20;2.70;;;;;;;26.71;38.41;98337.44;25030;1315;3068874;-67
2022/06/21 06:16:30;;;;;;;11.70;2.80;;;;;;;26.78;38.11;98338.68;25089;1316;3026360;-74
2022/06/21 06:19:08;;;;;;;7.40;3.00;;;;;;;26.83;38.32;98337.34;25115;1315;3052545;-74
2022/06/21 06:21:45;;;;;;;9.50;2.60;;;;;;;26.85;37.83;98336.05;25021;1315;3054785;-70
2022/06/21 06:24:20;;;;;;;7.20;2.40;;;;;;;26.90;36.76;98337.17;25099;1315;3059026;-63
2022/06/21 06:26:52;;;;;;;9.40;2.40;;;;;;;26.94;36.81;98336.41;25068;1315;3053105;-67
2022/06/21 06:29:27;;;;;;;7.50;2.60;;;;;;;27.05;36.51;98325.33;25105;1315;3027197;-70
2022/06/21 06:32:04;;;;;;;11.10;2.70;;;;;;;27.15;37.73;98325.29;25117;1315;3050616;-74
2022/06/21 06:34:37;;;;;;;6.70;1.90;;;;;;;27.24;36.46;98322.08;25114;1316;3071677;-70
2022/06/21 06:37:08;;;;;;;11.40;1.90;;;;;;;27.28;36.09;98318.58;25162;1315;3026159;-74
2022/06/21 06:39:38;;;;;;;6.20;1.40;;;;;;;27.37;36.31;98320.75;25043;1315;3026804;-71
2022/06/21 06:42:07;;;;;;;4.60;1.30;;;;;;;27.44;33.37;98321.48;25108;1315;3026922;-67
2022/06/21 06:44:48;;;;;;;4.30;1.40;;;;;;;27.49;32.13;98315.77;25201;1316;3051593;-71
2022/06/21 06:47:41;;;;;;;8.20;1.90;;;;;;;27.59;33.96;98316.16;25085;1315;3052845;-73
2022/06/21 06:50:35;;;;;;;8.30;1.80;;;;;;;27.62;33.12;98314.96;25065;1315;3054711;-71
2022/06/21 06:53:22;;;;;;;7.30;1.30;;;;;;;27.68;31.95;98313.18;25134;1315;3057277;-71
2022/06/21 06:55:54;;;;;;;8.10;1.20;;;;;;;27.73;31.48;98313.40;25084;1315;3052283;-67
2022/06/21 06:58:44;;;;;;;5.90;1.80;;;;;;;27.80;31.97;98314.32;25110;1315;3026311;-67
2022/06/21 07:01:18;;;;;;;5.50;1.60;;;;;;;27.91;31.65;98315.55;25112;1315;3053845;-60
2022/06/21 07:03:50;;;;;;;3.00;1.50;;;;;;;27.95;31.20;98304.67;25007;1318;3069094;-70
2022/06/21 07:06:47;;;;;;;5.40;1.60;;;;;;;28.07;31.73;98305.20;25032;1315;3026320;-70
2022/06/21 07:09:26;;;;;;;6.60;1.70;;;;;;;28.06;31.25;98302.33;25054;1316;3055454;-71
2022/06/21 07:12:19;;;;;;;2.50;1.50;;;;;;;28.09;31.50;98293.05;25105;1315;3052974;-71
2022/06/21 07:14:48;;;;;;;3.30;1.60;;;;;;;28.21;32.34;98301.73;25048;1315;3057179;-71
2022/06/21 07:17:27;;;;;;;3.40;1.10;;;;;;;28.27;32.05;98300.89;25128;1316;3026028;-71
2022/06/21 07:19:58;;;;;;;2.70;1.40;;;;;;;28.19;30.00;98294.56;25255;1316;3055749;-66
2022/06/21 07:22:31;;;;;;;7.70;1.70;;;;;;;28.17;29.65;98290.70;25101;1315;3026864;-68
2022/06/21 07:25:15;;;;;;;3.50;1.50;;;;;;;28.29;31.01;98294.30;25097;1315;3050362;-68
2022/06/21 07:27:48;;;;;;;7.80;1.80;;;;;;;28.39;31.53;98294.73;25064;1315;3056054;-75
2022/06/21 07:30:17;;;;;;;11.40;1.70;;;;;;;28.43;29.80;98301.88;25073;1316;3026380;-73
2022/06/21 07:32:54;;;;;;;4.10;1.70;;;;;;;28.38;29.69;98296.04;25067;1316;3026909;-73
2022/06/21 07:35:29;;;;;;;3.50;1.30;;;;;;;28.40;29.72;98289.61;25049;1315;3056051;-74
2022/06/21 07:38:26;;;;;;;3.30;1.70;;;;;;;28.42;29.78;98284.70;25002;1315;3053323;-72
2022/06/21 07:41:01;;;;;;;2.10;1.30;;;;;;;28.49;29.82;98280.83;25080;1316;3068377;-65
2022/06/21 07:43:43;;;;;;;6.00;1.40;;;;;;;28.60;29.80;98279.27;25052;1316;3052966;-66
2022/06/21 07:46:18;;;;;;;6.10;1.50;;;;;;;28.72;29.65;98276.93;25031;1315;3057044;-69
2022/06/21 07:48:50;;;;;;;5.20;1.50;;;;;;;28.84;29.67;98279.02;25060;1316;3053318;-70
2022/06/21 07:51:27;;;;;;;3.50;1.40;;;;;;;28.83;29.65;98289.80;25151;1315;3026891;-63
2022/06/21 07:54:04;;;;;;;7.80;1.70;;;;;;;28.78;29.79;98279.59;24980;1316;3047841;-73
2022/06/21 07:56:43;;;;;;;3.30;1.60;;;;;;;28.76;29.91;98272.80;25052;1316;3055004;-75
2022/06/21 07:59:20;;;;;;;3.40;1.40;;;;;;;28.72;30.36;98271.38;25064;1315;3051991;-74
2022/06/21 08:07:47;;;;;;;5.90;1.60;;;;;;;28.99;30.96;98265.50;25100;1315;3054740;-74
2022/06/21 08:10:31;;;;;;;4.30;1.50;;;;;;;28.96;30.54;98271.55;25154;1315;3026533;-69
2022/06/21 08:13:02;;;;;;;4.50;1.80;;;;;;;28.84;30.75;98259.21;25097;1315;3056898;-67
2022/06/21 08:15:38;;;;;;;4.70;1.80;;;;;;;28.88;30.92;98252.86;25045;1315;3026310;-63
2022/06/21 08:18:13;;;;;;;4.60;1.60;;;;;;;29.11;30.62;98247.76;25045;1315;3054607;-75
2022/06/21 08:20:45;;;;;;;8.20;2.10;;;;;;;29.26;30.77;98246.95;25173;1315;3049759;-69
2022/06/21 08:23:46;;;;;;;9.40;1.60;;;;;;;29.32;30.69;98248.58;25185;1315;3026553;-62
2022/06/21 08:26:20;;;;;;;4.60;1.40;;;;;;;29.41;30.13;98244.98;25028;1319;3049173;-75
2022/06/21 08:28:49;;;;;;;3.60;1.40;;;;;;;29.36;30.16;98242.05;25102;1315;3051223;-63
2022/06/21 08:31:28;;;;;;;2.40;1.30;;;;;;;29.39;29.75;98230.84;25078;1315;3026285;-73
2022/06/21 08:34:15;;;;;;;4.70;1.50;;;;;;;29.36;29.70;98227.71;25042;1315;3056283;-72
2022/06/21 08:37:12;;;;;;;4.40;1.60;;;;;;;29.47;30.04;98236.27;25045;1315;3052823;-72
2022/06/21 08:39:50;;;;;;;4.60;1.40;;;;;;;29.61;30.00;98226.14;25065;1315;3052639;-68
2022/06/21 08:42:37;;;;;;;7.90;1.70;;;;;;;29.61;29.74;98211.86;25103;1315;3054185;-69
2022/06/21 08:45:41;;;;;;;5.40;1.60;;;;;;;29.52;29.57;98224.08;25142;1315;3070034;-74
2022/06/21 08:48:19;;;;;;;3.50;1.80;;;;;;;29.56;29.80;98220.28;25079;1315;3051947;-77
2022/06/21 08:51:30;;;;;;;8.10;1.80;;;;;;;29.72;29.44;98216.07;25056;1315;3055347;-69
2022/06/21 08:54:06;;;;;;;4.20;1.50;;;;;;;29.80;29.33;98213.61;25075;1315;3054947;-72
2022/06/21 08:56:47;;;;;;;8.40;1.50;;;;;;;29.82;28.90;98211.77;25093;1315;3059459;-66
2022/06/21 08:59:21;;;;;;;4.80;1.70;;;;;;;29.98;28.87;98201.26;25100;1315;3052850;-66
2022/06/21 09:02:04;;;;;;;6.30;1.70;;;;;;;30.12;28.89;98205.33;25116;1315;3053374;-64
2022/06/21 09:04:53;;;;;;;2.70;1.50;;;;;;;29.99;29.09;98199.15;25390;1315;3054202;-67
2022/06/21 09:07:31;;;;;;;5.50;1.90;;;;;;;29.94;29.21;98196.87;25384;1315;3069592;-63
2022/06/21 09:10:13;;;;;;;8.70;2.00;;;;;;;30.08;29.07;98190.23;25415;1315;3048887;-66
2022/06/21 09:13:03;;;;;;;8.20;1.80;;;;;;;30.17;29.22;98190.51;25379;1315;3052700;-70
2022/06/21 09:16:04;;;;;;;7.10;1.80;;;;;;;29.97;28.53;98190.30;25362;1315;3055359;-65
2022/06/21 09:18:51;;;;;;;2.90;1.70;;;;;;;29.81;28.02;98188.48;25088;1315;3059421;-69
2022/06/21 09:21:36;;;;;;;3.90;1.60;;;;;;;29.95;28.29;98173.50;25078;1315;3052831;-65
2022/06/21 09:24:08;;;;;;;7.20;1.80;;;;;;;30.00;28.41;98175.02;25171;1315;3055848;-73
2022/06/21 09:26:49;;;;;;;8.10;1.80;;;;;;;29.97;28.72;98164.21;25054;1316;3054168;-69
2022/06/21 09:29:18;;;;;;;5.90;1.50;;;;;;;30.15;28.57;98156.45;25087;1315;3071843;-61
2022/06/21 09:31:48;;;;;;;2.60;1.40;;;;;;;30.32;28.48;98154.86;25058;1315;3026463;-76
2022/06/21 09:34:46;;;;;;;10.30;1.80;;;;;;;30.54;28.71;98149.87;25148;1315;3027033;-64
2022/06/21 09:38:00;;;;;;;4.30;1.60;;;;;;;30.55;28.16;98147.86;25094;1315;3068337;-68
2022/06/21 09:40:35;;;;;;;2.10;1.60;;;;;;;30.44;28.16;98163.84;24605;1315;3706463;-72
2022/06/21 09:43:31;;;;;;;10.90;1.80;;;;;;;30.35;28.17;98151.00;25126;1315;3054221;-70
2022/06/21 09:46:12;;;;;;;9.10;1.70;;;;;;;30.50;28.46;98138.77;25024;1316;3055374;-66
2022/06/21 09:49:09;;;;;;;5.50;1.70;;;;;;;30.56;28.43;98151.27;25044;1315;3059522;-71
2022/06/21 09:52:03;;;;;;;8.30;1.30;;;;;;;30.36;28.80;98146.09;25117;1315;3048934;-65
2022/06/21 09:54:36;;;;;;;6.90;1.80;;;;;;;30.35;28.80;98134.87;25153;1316;3056424;-72
2022/06/21 09:57:18;;;;;;;7.30;1.80;;;;;;;30.46;28.58;98132.06;25112;1315;3054275;-73
2022/06/21 10:00:41;;;;;;;5.00;2.00;;;;;;;30.54;28.36;98131.29;25018;1316;3068979;-68
2022/06/21 10:03:44;;;;;;;6.20;1.70;;;;;;;30.60;28.19;98128.75;24985;1319;3048895;-71
2022/06/21 10:06:23;;;;;;;3.70;1.60;;;;;;;30.59;27.98;98119.41;25068;1315;3055490;-69
2022/06/21 10:08:55;;;;;;;3.70;1.70;;;;;;;30.73;27.95;98113.03;25004;1317;3052793;-73
2022/06/21 10:11:44;;;;;;;6.80;1.90;;;;;;;30.78;28.30;98113.34;25037;1315;3026653;-62
2022/06/21 10:14:44;;;;;;;7.20;1.90;;;;;;;30.55;28.50;98114.33;25107;1316;3052573;-71
2022/06/21 10:17:35;;;;;;;5.60;1.60;;;;;;;30.46;28.28;98109.04;25110;1315;3055592;-69
2022/06/21 10:20:26;;;;;;;5.30;1.70;;;;;;;30.60;27.66;98117.25;25101;1316;3054548;-72
2022/06/21 10:23:23;;;;;;;5.40;2.10;;;;;;;30.62;27.36;98120.90;25095;1315;3071574;-70
2022/06/21 10:26:15;;;;;;;8.70;1.90;;;;;;;30.60;27.42;98104.19;25094;1315;3051437;-77
2022/06/21 10:29:12;;;;;;;6.60;1.50;;;;;;;30.81;27.24;98104.42;25054;1315;3055304;-71
2022/06/21 10:32:00;;;;;;;5.00;1.90;;;;;;;30.93;27.14;98095.90;25113;1315;3055753;-65
2022/06/21 10:35:07;;;;;;;8.70;1.60;;;;;;;31.05;27.26;98103.28;25036;1315;3059013;-64
2022/06/21 10:37:59;;;;;;;8.20;1.60;;;;;;;31.07;27.02;98100.98;25050;1315;3052746;-68
2022/06/21 10:40:49;;;;;;;7.80;1.60;;;;;;;31.11;26.85;98101.15;25113;1316;3056196;-65
2022/06/21 10:43:46;;;;;;;2.70;1.50;;;;;;;31.11;26.82;98095.41;25000;1315;3054089;-76
2022/06/21 10:46:57;;;;;;;5.60;1.60;;;;;;;31.27;26.05;98079.84;25107;1315;3071754;-64
2022/06/21 10:49:50;;;;;;;7.80;1.50;;;;;;;31.38;26.23;98077.67;25016;1316;3049394;-76
2022/06/21 10:52:44;;;;;;;5.80;1.50;;;;;;;31.41;26.19;98067.21;25091;1315;3054617;-65
2022/06/21 10:55:32;;;;;;;8.80;2.10;;;;;;;31.46;26.12;98067.61;25110;1315;3053846;-71
2022/06/21 10:58:04;;;;;;;7.60;1.70;;;;;;;31.43;26.40;98062.89;25102;1315;3058709;-69
2022/06/21 11:06:56;;;;;;;3.70;1.70;;;;;;;31.30;26.37;98066.02;31495;1319;3027586;-64
2022/06/21 11:09:41;;;;;;;7.00;1.90;;;;;;;31.63;26.46;98061.13;24943;1322;3052979;-63
2022/06/21 11:15:23;;;;;;;3.20;1.50;;;;;;;31.65;26.22;98053.88;25068;1316;3059511;-72
2022/06/21 11:18:08;;;;;;;;;;;;;;;31.60;26.38;98047.95;25055;1316;3050967;-70
2022/06/21 11:21:06;;;;;;;6.10;1.60;;;;;;;31.79;25.73;98050.64;24951;1316;3285602;-76
2022/06/21 11:23:46;;;;;;;4.90;2.00;;;;;;;31.55;25.54;98045.20;25169;1316;3053667;-69
2022/06/21 11:26:46;;;;;;;4.30;2.10;;;;;;;31.53;25.89;98053.55;25114;1314;3071027;-71
2022/06/21 11:29:37;;;;;;;6.40;2.30;;;;;;;31.81;26.40;98045.31;25082;1316;3052254;-67
2022/06/21 11:32:33;;;;;;;5.80;1.60;;;;;;;31.81;26.06;98041.58;25099;1316;3056251;-72
2022/06/21 11:35:16;;;;;;;4.40;2.30;;;;;;;31.75;26.24;98032.10;25160;1315;3055049;-72
2022/06/21 11:37:51;;;;;;;12.10;2.00;;;;;;;31.90;25.47;98030.95;25083;1316;3058636;-67
2022/06/21 11:40:27;;;;;;;8.90;1.80;;;;;;;32.13;25.11;98019.98;25054;1316;3049957;-63
2022/06/21 11:42:57;;;;;;;5.40;1.90;;;;;;;32.28;25.16;98027.25;25095;1313;3056031;-68
2022/06/21 11:45:39;;;;;;;11.70;1.60;;;;;;;32.43;24.98;98023.30;25123;1313;3026839;-67
2022/06/21 11:48:33;;;;;;;5.50;1.60;;;;;;;32.54;24.87;98025.67;25095;1313;3071375;-68
2022/06/21 11:51:11;;;;;;;6.50;1.50;;;;;;;32.43;24.42;98014.27;25160;1312;3050780;-65
2022/06/21 11:53:44;;;;;;;6.10;1.80;;;;;;;32.58;24.45;98006.33;25145;1313;3053506;-69
2022/06/21 11:56:39;;;;;;;10.40;1.40;;;;;;;32.52;23.92;98012.38;25069;1313;3026681;-66
2022/06/21 11:59:22;;;;;;;4.30;1.60;;;;;;;32.56;23.36;98005.95;25044;1318;3059494;-69
2022/06/21 12:02:18;;;;;;;4.20;1.90;;;;;;;32.73;23.18;97998.99;25054;1315;3052586;-65
2022/06/21 12:05:04;;;;;;;8.30;1.70;;;;;;;32.62;23.85;97997.58;25076;1316;3055044;-65
2022/06/21 12:07:41;;;;;;;6.20;1.50;;;;;;;32.82;24.24;98001.55;25055;1315;3050140;-66
2022/06/21 12:10:20;;;;;;;5.20;1.50;;;;;;;33.00;23.98;97987.11;25053;1313;3069897;-68
2022/06/21 12:13:26;;;;;;;4.10;1.50;;;;;;;32.93;23.87;97982.44;25035;1313;3052018;-77
2022/06/21 12:15:58;;;;;;;6.20;1.50;;;;;;;32.85;23.95;97980.02;25134;1316;3052378;-71
2022/06/21 12:18:30;;;;;;;3.60;1.20;;;;;;;32.62;24.19;97978.83;25111;1313;3028339;-69
2022/06/21 12:21:01;;;;;;;5.90;2.10;;;;;;;32.69;23.66;97984.16;25235;1316;3026474;-72
2022/06/21 12:23:44;;;;;;;4.40;1.20;;;;;;;32.71;23.35;97974.33;25099;1313;3027554;-75